Observations for Trim Market St
| Time | AQI | Temp °C | Hum % | Pres Pa | CO μg/m³ | H₂S μg/m³ | NO μg/m³ | NO₂ μg/m³ | O₃ μg/m³ | SO₂ μg/m³ | PM1 μg/m³ | PM2.5 μg/m³ | PM10 μg/m³ |
|---|---|---|---|---|---|---|---|---|---|---|---|---|---|
| Wednesday 8 July 2026 | |||||||||||||
| 01:11 | 1 | 19 | 73 | 47,673 | 0 | 0 | 0 | 3.48 | 12.5 | 0 | 0 | 1 | 2.64 |
| 01:10 | 1 | 19 | 73 | 47,770 | 0 | 0 | 0 | 4.38 | 10.88 | 0 | 0 | 1.48 | 3.86 |
| 01:09 | 1 | 19.1 | 72 | 47,925 | 0 | 0 | 0 | 3.97 | 11.99 | 0 | 0 | 1.49 | 3.25 |
| 01:08 | 1 | 19.1 | 72 | 48,067 | 0 | 0 | 0 | 3.27 | 13.03 | 0 | 0.71 | 1.97 | 3.86 |
| 01:06 | 1 | 19.1 | 72 | 48,230 | 0 | 0 | 0 | 3.38 | 11.3 | 0 | 0 | 1.01 | 2.63 |
| 01:04 | 1 | 19.2 | 72 | 48,554 | 0 | 0 | 0 | 3.96 | 11.61 | 0 | 0 | 1.5 | 3.24 |
| 01:01 | 1 | 19.2 | 72 | 49,084 | 0 | 0 | 0 | 4.26 | 10.04 | 0 | 0 | 1.5 | 3.24 |
| 01:00 | 1 | 19.3 | 72 | 49,315 | 0 | 0 | 0 | 5.05 | 12.33 | 0 | 0 | 1.02 | 2.62 |
| 00:59 | 1 | 19.3 | 72 | 49,487 | 0 | 0 | 0 | 3.85 | 9.86 | 0 | 0 | 1.02 | 2.62 |
| 00:58 | 1 | 19.3 | 72 | 49,616 | 0 | 0 | 0 | 3.75 | 11.07 | 0 | 0 | 1.5 | 3.23 |
| 00:57 | 1 | 19.3 | 72 | 49,739 | 0 | 0 | 0 | 3.96 | 11.35 | 0 | 0 | 1.51 | 3.23 |
| 00:56 | 1 | 19.3 | 72 | 49,849 | 0 | 0 | 0 | 4.46 | 9.29 | 0 | 0 | 1.02 | 2.62 |
| 00:54 | 1 | 19.4 | 72 | 50,015 | 0 | 0 | 0 | 3.84 | 8.42 | 0 | 0 | 1.51 | 3.23 |
| 00:53 | 1 | 19.4 | 72 | 50,052 | 0 | 0 | 0 | 2.54 | 16.15 | 0 | 0 | 1.51 | 3.23 |
| 00:50 | 1 | 19.5 | 72 | 50,053 | 0 | 0 | 0 | 2.43 | 10.65 | 0 | 0 | 1.03 | 3.22 |
| 00:49 | 1 | 19.5 | 72 | 50,093 | 0 | 0 | 0 | 5.23 | 10.88 | 0 | 0 | 1.51 | 3.22 |
| 00:47 | 1 | 19.5 | 72 | 50,224 | 0 | 0 | 0 | 3.74 | 13.21 | 0 | 0 | 1.04 | 2.6 |
| 00:43 | 1 | 19.6 | 72 | 50,600 | 0 | 0 | 0 | 8.12 | 16.06 | 0 | 0 | 1.04 | 2.6 |
| 00:35 | 1 | 19.7 | 72 | 51,183 | 0 | 0 | 0 | 4.82 | 11.09 | 0 | 0 | 1.05 | 2.59 |
| 00:34 | 1 | 19.7 | 72 | 51,167 | 0 | 0 | 0 | 4.82 | 11.09 | 0 | 0 | 1.53 | 3.21 |